Time;durP1;ratioP1;P1;durP2;ratioP2;P2;SDS_P1;SDS_P2;PMS_P1;PMS_P2;Temp;Humidity;BMP_temperature;BMP_pressure;BME280_temperature;BME280_humidity;BME280_pressure;Samples;Min_cycle;Max_cycle;Signal;HPM_P1;HPM_P2
2022/01/10 00:00:52;;;;;;;1.00;0.80;;;1.90;99.90;;;;;;5105362;28;20346;-48
2022/01/10 00:03:36;;;;;;;1.20;0.83;;;1.90;99.90;;;;;;5106067;28;20199;-54
2022/01/10 00:06:21;;;;;;;1.17;1.10;;;1.90;99.90;;;;;;5132510;27;20273;-50
2022/01/10 00:09:05;;;;;;;0.60;0.60;;;1.90;99.90;;;;;;5134997;27;20267;-45
2022/01/10 00:11:50;;;;;;;0.60;0.50;;;1.90;99.90;;;;;;5134807;27;20192;-53
2022/01/10 00:14:35;;;;;;;1.27;1.17;;;1.80;99.90;;;;;;5132858;27;20188;-47
2022/01/10 00:17:20;;;;;;;0.40;0.40;;;1.80;99.90;;;;;;5105808;28;20281;-46
2022/01/10 00:20:07;;;;;;;0.73;0.73;;;1.80;99.90;;;;;;5133045;27;20227;-49
2022/01/10 00:22:51;;;;;;;0.90;0.90;;;1.80;99.90;;;;;;5118760;27;20222;-49
2022/01/10 00:25:36;;;;;;;1.07;1.07;;;1.90;99.90;;;;;;5129707;27;20197;-46
2022/01/10 00:28:21;;;;;;;2.83;1.20;;;1.90;99.90;;;;;;5111143;27;20245;-48
2022/01/10 00:31:05;;;;;;;0.23;0.23;;;1.90;99.90;;;;;;5099923;27;20280;-47
2022/01/10 00:33:51;;;;;;;1.13;1.03;;;1.80;99.90;;;;;;5096219;28;20232;-47
2022/01/10 00:36:35;;;;;;;0.63;0.63;;;1.80;99.90;;;;;;5094325;27;20294;-47
2022/01/10 00:39:20;;;;;;;0.93;0.93;;;1.80;99.90;;;;;;5092772;28;20195;-47
2022/01/10 00:42:04;;;;;;;1.03;0.73;;;1.70;99.90;;;;;;5094047;28;20208;-45
2022/01/10 00:44:51;;;;;;;0.80;0.80;;;1.70;99.90;;;;;;5090362;28;20203;-48
2022/01/10 00:47:36;;;;;;;1.97;1.47;;;1.70;99.90;;;;;;5094368;28;20224;-49
2022/01/10 00:50:21;;;;;;;8.20;1.20;;;1.70;99.90;;;;;;5094147;28;20188;-50
2022/01/10 00:53:07;;;;;;;4.07;1.10;;;1.60;99.90;;;;;;5095173;28;20196;-51
2022/01/10 00:55:52;;;;;;;1.10;1.10;;;1.60;99.90;;;;;;5093602;28;20267;-48
2022/01/10 00:58:37;;;;;;;0.50;0.50;;;1.60;99.90;;;;;;5095036;28;20274;-51
2022/01/10 01:01:21;;;;;;;3.90;0.60;;;1.50;99.90;;;;;;5110308;27;20350;-55
2022/01/10 01:04:06;;;;;;;0.70;0.70;;;1.60;99.90;;;;;;5110945;27;20195;-54
2022/01/10 01:06:50;;;;;;;0.50;0.33;;;1.60;99.90;;;;;;5111617;27;20199;-50
2022/01/10 01:09:35;;;;;;;1.33;1.13;;;1.60;99.90;;;;;;5128050;27;20195;-46
2022/01/10 01:12:40;;;;;;;1.70;0.77;;;1.70;99.90;;;;;;5125961;27;20187;-58
2022/01/10 01:15:29;;;;;;;2.00;0.70;;;1.70;99.90;;;;;;5126738;27;20187;-58
2022/01/10 01:18:31;;;;;;;0.80;0.80;;;1.70;99.90;;;;;;5125096;27;20218;-58
2022/01/10 01:24:38;;;;;;;0.40;0.40;;;1.80;99.90;;;;;;5101124;28;20192;-57
2022/01/10 01:27:22;;;;;;;1.20;0.73;;;1.80;99.90;;;;;;5125167;27;20191;-54
2022/01/10 01:30:08;;;;;;;1.03;1.03;;;1.80;99.90;;;;;;5125247;27;20199;-59
2022/01/10 01:32:52;;;;;;;0.70;0.70;;;1.80;99.90;;;;;;5122592;27;20241;-51
2022/01/10 01:35:37;;;;;;;1.40;1.03;;;1.80;99.90;;;;;;5124968;27;20243;-57
2022/01/10 01:38:22;;;;;;;22.73;9.57;;;1.80;99.90;;;;;;5124084;27;20286;-56
2022/01/10 01:41:49;;;;;;;5.20;4.00;;;1.90;99.90;;;;;;5123883;27;20195;-53
2022/01/10 01:44:15;;;;;;;0.93;0.93;;;1.90;99.90;;;;;;5125941;27;20203;-50
2022/01/10 01:47:00;;;;;;;0.50;0.50;;;1.90;99.90;;;;;;5123556;27;20199;-54
2022/01/10 01:49:44;;;;;;;0.80;0.80;;;1.90;99.90;;;;;;5123406;27;20273;-47
2022/01/10 01:52:29;;;;;;;0.93;0.93;;;1.80;99.90;;;;;;5124355;27;20199;-51
2022/01/10 01:55:15;;;;;;;1.00;1.00;;;1.80;99.90;;;;;;5123073;27;20230;-51
2022/01/10 01:58:00;;;;;;;1.90;0.57;;;1.80;99.90;;;;;;5123712;27;20226;-58
2022/01/10 02:00:44;;;;;;;1.53;0.90;;;1.80;99.90;;;;;;5124703;27;20274;-57
2022/01/10 02:03:33;;;;;;;1.60;0.80;;;1.80;99.90;;;;;;5122250;27;20210;-48
2022/01/10 02:06:19;;;;;;;1.07;1.07;;;1.80;99.90;;;;;;5124060;27;20199;-51
2022/01/10 02:09:03;;;;;;;0.90;0.90;;;1.80;99.90;;;;;;5124529;27;20209;-51
2022/01/10 02:11:48;;;;;;;1.53;0.80;;;1.80;99.90;;;;;;5122867;27;20195;-51
2022/01/10 02:14:34;;;;;;;7.03;1.00;;;1.80;99.90;;;;;;5124701;27;20192;-52
2022/01/10 02:17:22;;;;;;;4.40;1.77;;;1.80;99.90;;;;;;5123242;27;20222;-49
2022/01/10 02:20:07;;;;;;;1.00;1.00;;;1.70;99.90;;;;;;5122279;27;20336;-45
2022/01/10 02:22:51;;;;;;;1.23;1.13;;;1.70;99.90;;;;;;5124063;27;20192;-54
2022/01/10 02:25:36;;;;;;;2.33;1.30;;;1.70;99.90;;;;;;5122266;27;20195;-56
2022/01/10 02:28:20;;;;;;;3.60;1.37;;;1.60;99.90;;;;;;5123159;27;20187;-52
2022/01/10 02:31:06;;;;;;;3.90;1.80;;;1.70;99.90;;;;;;5123908;27;20191;-55
2022/01/10 02:33:56;;;;;;;1.70;1.60;;;1.60;99.90;;;;;;5121464;27;20223;-55
2022/01/10 02:36:41;;;;;;;2.20;1.20;;;1.60;99.90;;;;;;5123395;27;20276;-45
2022/01/10 02:39:25;;;;;;;1.40;1.33;;;1.60;99.90;;;;;;5123871;27;20205;-46
2022/01/10 02:42:10;;;;;;;1.70;1.60;;;1.60;99.90;;;;;;5121594;27;20226;-47
2022/01/10 02:44:54;;;;;;;1.40;1.33;;;1.60;99.90;;;;;;5123680;27;20194;-49
2022/01/10 02:47:38;;;;;;;1.97;1.83;;;1.70;99.90;;;;;;5122756;27;20187;-54
2022/01/10 02:50:23;;;;;;;1.50;1.50;;;1.60;99.90;;;;;;5117911;28;20204;-51
2022/01/10 02:53:08;;;;;;;3.27;1.90;;;1.60;99.90;;;;;;5103214;28;20188;-55
2022/01/10 02:55:53;;;;;;;1.80;1.70;;;1.50;99.90;;;;;;5099984;28;20226;-51
2022/01/10 02:58:38;;;;;;;1.33;1.33;;;1.60;99.90;;;;;;5102030;28;20250;-57
2022/01/10 03:01:22;;;;;;;2.20;2.00;;;1.60;99.90;;;;;;5103128;28;20184;-58
2022/01/10 03:04:07;;;;;;;4.20;1.93;;;1.60;99.90;;;;;;5100432;28;20204;-56
2022/01/10 03:06:52;;;;;;;3.00;2.37;;;1.60;99.90;;;;;;5103168;28;20192;-59
2022/01/10 03:09:36;;;;;;;2.10;1.50;;;1.60;99.90;;;;;;5103498;28;20233;-59
2022/01/10 03:12:22;;;;;;;2.87;2.10;;;1.70;99.90;;;;;;5101165;28;20214;-47
2022/01/10 03:15:07;;;;;;;0.93;0.83;;;1.70;99.90;;;;;;5102780;28;20187;-46
2022/01/10 03:17:51;;;;;;;2.03;1.70;;;1.70;99.90;;;;;;5101956;28;20220;-57
2022/01/10 03:20:36;;;;;;;5.13;1.83;;;1.70;99.90;;;;;;5101567;28;20238;-49
2022/01/10 03:23:20;;;;;;;4.33;2.07;;;1.70;99.90;;;;;;5103373;28;20203;-56
2022/01/10 03:26:04;;;;;;;3.97;2.17;;;1.70;99.90;;;;;;5101482;28;20289;-57
2022/01/10 03:28:48;;;;;;;3.27;2.73;;;1.70;99.90;;;;;;5102903;28;20200;-47
2022/01/10 03:31:33;;;;;;;2.00;1.90;;;1.70;99.90;;;;;;5106514;28;20207;-57
2022/01/10 03:34:17;;;;;;;2.13;2.03;;;1.70;99.90;;;;;;5104531;28;20685;-53
2022/01/10 03:37:02;;;;;;;5.20;2.17;;;1.80;99.90;;;;;;5106112;28;20228;-60
2022/01/10 03:39:46;;;;;;;1.97;1.40;;;1.80;99.90;;;;;;5106640;28;20200;-56
2022/01/10 03:42:31;;;;;;;2.10;2.00;;;1.80;99.90;;;;;;5104859;28;20200;-55
2022/01/10 03:45:15;;;;;;;2.53;1.77;;;1.80;99.90;;;;;;5106057;28;20192;-58
2022/01/10 03:47:59;;;;;;;1.80;1.70;;;1.80;99.90;;;;;;5105340;28;20227;-58
2022/01/10 03:50:44;;;;;;;3.37;1.70;;;1.70;99.90;;;;;;5105848;28;20268;-57
2022/01/10 03:53:30;;;;;;;2.57;1.83;;;1.80;99.90;;;;;;5106184;28;20214;-51
2022/01/10 03:56:15;;;;;;;1.37;1.23;;;1.80;99.90;;;;;;5104239;28;20218;-52
2022/01/10 03:59:02;;;;;;;1.93;1.83;;;1.80;99.90;;;;;;5105642;28;20245;-53
2022/01/10 04:01:47;;;;;;;2.10;1.80;;;1.80;99.90;;;;;;5106453;28;20229;-51
2022/01/10 04:04:33;;;;;;;2.00;1.90;;;1.90;99.90;;;;;;5104069;28;20262;-49
2022/01/10 04:07:18;;;;;;;3.67;1.87;;;1.80;99.90;;;;;;5106665;28;20208;-56
2022/01/10 04:10:04;;;;;;;1.73;1.63;;;1.80;99.90;;;;;;5105933;28;20200;-58
2022/01/10 04:12:49;;;;;;;1.83;1.63;;;1.80;99.90;;;;;;5104809;28;20292;-45
2022/01/10 04:15:33;;;;;;;3.93;1.60;;;1.80;99.90;;;;;;5105668;28;20188;-51
2022/01/10 04:18:18;;;;;;;1.83;1.73;;;1.80;99.90;;;;;;5104198;28;20277;-56
2022/01/10 04:21:03;;;;;;;3.13;2.27;;;1.80;99.90;;;;;;5105614;28;20277;-49
2022/01/10 04:23:47;;;;;;;2.67;2.33;;;1.80;99.90;;;;;;5106387;28;21055;-60
2022/01/10 04:26:32;;;;;;;1.80;1.70;;;1.70;99.90;;;;;;5103970;28;20224;-47
2022/01/10 04:29:17;;;;;;;3.17;2.03;;;1.80;99.90;;;;;;5105557;28;20200;-50
2022/01/10 04:32:03;;;;;;;2.17;1.97;;;1.80;99.90;;;;;;5105865;28;20280;-48
2022/01/10 04:34:51;;;;;;;1.20;1.07;;;1.70;99.90;;;;;;5104347;28;20239;-47
2022/01/10 04:37:36;;;;;;;4.83;2.20;;;1.60;99.90;;;;;;5105258;28;20255;-51
2022/01/10 04:40:21;;;;;;;2.30;1.40;;;1.60;99.90;;;;;;5105878;28;20211;-53
2022/01/10 04:43:05;;;;;;;2.17;1.57;;;1.60;99.90;;;;;;5104491;28;20285;-54
2022/01/10 04:45:51;;;;;;;1.57;1.47;;;1.60;99.90;;;;;;5105175;28;20281;-50
2022/01/10 04:48:36;;;;;;;1.10;1.00;;;1.60;99.90;;;;;;5104025;28;20199;-54
2022/01/10 04:51:21;;;;;;;1.10;1.10;;;1.50;99.90;;;;;;5104506;28;20208;-50
2022/01/10 04:54:06;;;;;;;1.87;1.37;;;1.50;99.90;;;;;;5105073;28;20212;-45
2022/01/10 04:56:50;;;;;;;0.77;0.77;;;1.60;99.90;;;;;;5103503;28;20299;-48
2022/01/10 04:59:34;;;;;;;2.60;1.27;;;1.50;99.90;;;;;;5105151;28;20288;-50
2022/01/10 05:02:19;;;;;;;1.77;1.63;;;1.50;99.90;;;;;;5104745;28;20193;-54
2022/01/10 05:05:04;;;;;;;2.57;0.90;;;1.50;99.90;;;;;;5103289;28;20208;-53
2022/01/10 05:07:49;;;;;;;0.90;0.90;;;1.50;99.90;;;;;;5105308;28;20196;-52
2022/01/10 05:10:33;;;;;;;0.93;0.93;;;1.50;99.90;;;;;;5104557;28;20262;-56
2022/01/10 05:13:18;;;;;;;2.10;1.33;;;1.50;99.90;;;;;;5102794;28;20192;-52
2022/01/10 05:16:03;;;;;;;34.93;16.63;;;1.60;99.90;;;;;;5104662;28;20184;-55
2022/01/10 05:18:48;;;;;;;11.47;4.60;;;1.70;99.90;;;;;;5103154;28;20254;-49
2022/01/10 05:21:32;;;;;;;1.50;1.40;;;1.90;99.90;;;;;;5103827;28;20261;-56
2022/01/10 05:24:16;;;;;;;5.03;1.67;;;1.80;99.90;;;;;;5104540;28;20573;-51
2022/01/10 05:27:01;;;;;;;1.37;1.27;;;1.80;99.90;;;;;;5102529;28;20208;-45
2022/01/10 05:29:45;;;;;;;1.70;1.60;;;1.80;99.90;;;;;;5104334;28;20260;-50
2022/01/10 05:32:30;;;;;;;1.13;1.03;;;1.80;99.90;;;;;;5104056;28;20200;-51
2022/01/10 05:35:14;;;;;;;1.57;1.47;;;1.80;99.90;;;;;;5102229;28;20231;-51
2022/01/10 05:37:58;;;;;;;1.63;1.37;;;1.80;99.90;;;;;;5104260;28;20265;-45
2022/01/10 05:40:43;;;;;;;1.07;1.07;;;1.80;99.90;;;;;;5103627;28;20242;-47
2022/01/10 05:43:29;;;;;;;3.63;1.73;;;1.80;99.90;;;;;;5102905;28;20196;-46
2022/01/10 05:46:18;;;;;;;1.50;1.33;;;1.80;99.90;;;;;;5104669;28;20215;-53
2022/01/10 05:49:04;;;;;;;2.40;0.97;;;1.80;99.90;;;;;;5102014;28;20246;-51
2022/01/10 05:51:49;;;;;;;2.00;1.90;;;1.80;99.90;;;;;;5102971;28;20246;-58
2022/01/10 05:54:34;;;;;;;1.37;1.37;;;1.80;99.90;;;;;;5104170;28;20196;-57
2022/01/10 05:57:18;;;;;;;2.37;1.30;;;1.80;99.90;;;;;;5102226;28;20264;-54
2022/01/10 06:00:04;;;;;;;3.33;2.13;;;1.80;99.90;;;;;;5103691;28;20234;-50
2022/01/10 06:02:48;;;;;;;3.87;2.10;;;1.80;99.90;;;;;;5103218;28;20196;-57
2022/01/10 06:05:34;;;;;;;1.53;1.10;;;1.70;99.90;;;;;;5102117;28;20200;-50
2022/01/10 06:08:18;;;;;;;1.93;1.53;;;1.80;99.90;;;;;;5103774;28;20192;-53
2022/01/10 06:11:02;;;;;;;2.90;1.57;;;1.80;99.90;;;;;;5103215;28;20192;-59
2022/01/10 06:13:47;;;;;;;3.27;1.57;;;1.80;99.90;;;;;;5102432;28;20246;-56
2022/01/10 06:16:31;;;;;;;1.77;1.67;;;1.80;99.90;;;;;;5103389;28;20220;-58
2022/01/10 06:19:15;;;;;;;5.83;1.90;;;1.90;99.90;;;;;;5101915;28;20246;-55
2022/01/10 06:21:59;;;;;;;4.67;1.97;;;1.90;99.90;;;;;;5103093;28;20195;-51
2022/01/10 06:24:45;;;;;;;2.63;1.73;;;1.90;99.90;;;;;;5103710;28;20290;-47
2022/01/10 06:27:29;;;;;;;0.90;0.90;;;1.90;99.90;;;;;;5101872;28;20279;-45
2022/01/10 06:30:14;;;;;;;2.27;1.30;;;1.90;99.90;;;;;;5103611;28;20196;-46
2022/01/10 06:32:58;;;;;;;2.43;1.63;;;1.90;99.90;;;;;;5102742;28;20242;-56
2022/01/10 06:35:43;;;;;;;3.13;2.50;;;1.90;99.90;;;;;;5101777;28;20196;-55
2022/01/10 06:38:28;;;;;;;2.30;1.77;;;2.00;99.90;;;;;;5103445;28;20224;-47
2022/01/10 06:41:12;;;;;;;4.17;2.13;;;1.90;99.90;;;;;;5103006;28;20214;-54
2022/01/10 06:43:56;;;;;;;3.63;2.27;;;1.90;99.90;;;;;;5102894;28;20225;-56
2022/01/10 06:46:40;;;;;;;4.07;1.63;;;1.90;99.90;;;;;;5101855;28;20192;-54
2022/01/10 06:49:25;;;;;;;3.60;2.97;;;1.80;99.90;;;;;;5108722;27;20234;-47
2022/01/10 06:52:09;;;;;;;3.00;2.60;;;1.80;99.90;;;;;;5108373;28;20192;-48
2022/01/10 06:54:54;;;;;;;2.70;2.53;;;1.80;99.90;;;;;;5109466;28;20191;-49
2022/01/10 06:57:39;;;;;;;2.30;2.10;;;1.80;99.90;;;;;;5108906;28;20211;-52
2022/01/10 07:00:24;;;;;;;5.97;1.83;;;1.70;99.90;;;;;;5116387;28;20237;-58
2022/01/10 07:03:08;;;;;;;1.97;1.57;;;1.70;99.90;;;;;;5107997;27;20196;-55
2022/01/10 07:05:53;;;;;;;6.03;2.07;;;1.70;99.90;;;;;;5119894;27;20199;-48
2022/01/10 07:08:37;;;;;;;2.50;1.40;;;1.70;99.90;;;;;;5128944;27;20215;-55
2022/01/10 07:11:22;;;;;;;5.00;2.23;;;1.70;99.90;;;;;;5118254;27;20242;-57
2022/01/10 07:14:06;;;;;;;4.30;2.13;;;1.60;99.90;;;;;;5111564;27;20233;-57
2022/01/10 07:16:50;;;;;;;1.67;1.50;;;1.60;99.90;;;;;;5118050;27;20350;-47
2022/01/10 07:19:36;;;;;;;2.10;1.90;;;1.50;99.90;;;;;;5120517;27;20196;-54
2022/01/10 07:22:22;;;;;;;2.13;2.03;;;1.40;99.90;;;;;;5118108;27;20257;-53
2022/01/10 07:25:06;;;;;;;7.17;2.90;;;1.40;99.90;;;;;;5111223;27;20241;-55
2022/01/10 07:27:51;;;;;;;2.40;1.73;;;1.40;99.90;;;;;;5116036;27;20203;-49
2022/01/10 07:30:36;;;;;;;1.90;1.80;;;1.40;99.90;;;;;;5113266;27;20184;-53
2022/01/10 07:33:20;;;;;;;2.63;2.10;;;1.40;99.90;;;;;;5116703;27;20188;-60
2022/01/10 07:36:05;;;;;;;3.87;3.00;;;1.30;99.90;;;;;;5107207;27;20218;-62
2022/01/10 07:38:50;;;;;;;2.87;2.53;;;1.30;99.90;;;;;;5119746;27;20308;-51
2022/01/10 07:41:34;;;;;;;2.33;2.03;;;1.40;99.90;;;;;;5118870;27;20280;-56
2022/01/10 07:44:18;;;;;;;3.67;3.00;;;1.40;99.90;;;;;;5113658;27;20192;-55
2022/01/10 07:47:03;;;;;;;2.27;1.83;;;1.30;99.90;;;;;;5114796;27;20277;-63
2022/01/10 07:49:47;;;;;;;4.10;2.67;;;1.30;99.90;;;;;;5113416;27;20192;-44
2022/01/10 07:52:32;;;;;;;2.57;2.33;;;1.20;99.90;;;;;;5117249;27;20242;-56
2022/01/10 07:55:16;;;;;;;2.67;2.43;;;1.20;99.90;;;;;;5110140;27;20222;-62
2022/01/10 07:58:01;;;;;;;3.97;2.90;;;1.20;99.90;;;;;;5108526;27;20296;-64
2022/01/10 08:00:45;;;;;;;7.60;4.43;;;1.20;99.90;;;;;;5114424;27;20222;-62
2022/01/10 08:03:30;;;;;;;5.07;3.77;;;1.20;99.90;;;;;;5114699;27;20191;-47
2022/01/10 08:06:15;;;;;;;4.07;2.47;;;1.20;99.90;;;;;;5118095;27;20187;-52
2022/01/10 08:08:59;;;;;;;1.47;1.40;;;1.20;99.90;;;;;;5117440;27;20195;-50
2022/01/10 08:11:44;;;;;;;1.73;1.60;;;1.30;99.90;;;;;;5104527;28;20215;-61
2022/01/10 08:14:29;;;;;;;3.17;2.70;;;1.30;99.90;;;;;;5104540;28;20192;-50
2022/01/10 08:17:14;;;;;;;2.30;1.83;;;1.30;99.90;;;;;;5106642;27;20231;-65
2022/01/10 08:19:58;;;;;;;4.07;2.43;;;1.30;99.90;;;;;;5104045;27;20274;-50
2022/01/10 08:22:43;;;;;;;4.40;2.27;;;1.30;99.90;;;;;;5131426;27;20200;-48
2022/01/10 08:25:28;;;;;;;3.90;3.00;;;1.40;99.90;;;;;;5108020;27;20224;-54
2022/01/10 08:28:13;;;;;;;5.17;3.17;;;1.40;99.90;;;;;;5113728;27;20205;-46
2022/01/10 08:30:57;;;;;;;2.73;2.50;;;1.40;99.90;;;;;;5105606;27;20249;-61
2022/01/10 08:33:44;;;;;;;3.70;2.57;;;1.60;99.90;;;;;;5133726;27;20228;-57
2022/01/10 08:36:28;;;;;;;4.27;2.60;;;1.60;99.90;;;;;;5104533;27;20215;-56
2022/01/10 08:39:13;;;;;;;2.03;1.93;;;1.60;99.90;;;;;;5099989;27;20204;-54
2022/01/10 08:41:59;;;;;;;3.13;2.77;;;1.70;99.90;;;;;;5098667;27;20192;-61
2022/01/10 08:44:43;;;;;;;2.93;2.57;;;1.80;99.90;;;;;;5110126;27;20191;-58
2022/01/10 08:47:28;;;;;;;6.63;3.13;;;1.90;99.90;;;;;;5133588;27;20200;-59
2022/01/10 08:50:14;;;;;;;6.43;4.20;;;1.90;99.90;;;;;;5106282;27;20200;-52
2022/01/10 08:52:58;;;;;;;9.50;2.10;;;1.90;99.90;;;;;;5106589;27;20193;-63
2022/01/10 08:55:44;;;;;;;4.90;2.63;;;1.90;99.90;;;;;;5097546;27;20249;-62
2022/01/10 08:58:32;;;;;;;3.10;2.37;;;2.10;99.90;;;;;;5101567;27;20231;-58
2022/01/10 09:01:19;;;;;;;5.47;2.37;;;2.20;99.90;;;;;;5099896;27;20273;-48
2022/01/10 09:04:03;;;;;;;2.23;2.13;;;2.40;99.90;;;;;;5132204;27;20249;-50
2022/01/10 09:06:50;;;;;;;3.60;2.70;;;2.50;99.90;;;;;;5128793;27;20301;-50
2022/01/10 09:09:37;;;;;;;9.73;3.47;;;2.80;99.90;;;;;;5102733;27;20189;-57
2022/01/10 09:12:22;;;;;;;3.50;2.23;;;2.90;99.90;;;;;;5099958;27;20188;-46
2022/01/10 09:15:08;;;;;;;4.37;3.00;;;2.90;99.90;;;;;;5098893;27;20231;-70
2022/01/10 09:17:53;;;;;;;2.50;2.23;;;2.90;99.90;;;;;;5103988;27;20219;-55
2022/01/10 09:20:38;;;;;;;3.37;2.57;;;2.70;99.90;;;;;;5126788;27;20208;-45
2022/01/10 09:23:23;;;;;;;2.70;2.33;;;2.90;99.90;;;;;;5103173;27;20692;-44
2022/01/10 09:26:08;;;;;;;8.50;3.93;;;3.10;99.90;;;;;;5114364;27;20207;-49
2022/01/10 09:28:53;;;;;;;4.17;2.27;;;3.10;99.90;;;;;;5108188;27;20237;-48
2022/01/10 09:31:38;;;;;;;3.83;1.63;;;3.20;99.90;;;;;;5111989;27;20210;-58
2022/01/10 09:34:23;;;;;;;3.77;3.20;;;3.30;99.90;;;;;;5111211;27;20223;-46
2022/01/10 09:37:07;;;;;;;2.27;2.07;;;3.00;99.90;;;;;;5135174;27;20279;-50
2022/01/10 09:39:53;;;;;;;2.30;1.63;;;2.90;99.90;;;;;;5135823;27;20199;-50
2022/01/10 09:42:38;;;;;;;2.13;1.93;;;2.90;99.90;;;;;;5111999;27;20206;-50
2022/01/10 09:45:23;;;;;;;1.57;1.27;;;2.90;99.90;;;;;;5109939;27;20195;-50
2022/01/10 09:48:09;;;;;;;2.27;2.07;;;2.80;99.90;;;;;;5141850;27;20237;-64
2022/01/10 09:50:53;;;;;;;2.30;2.10;;;3.00;99.90;;;;;;5102829;27;20246;-48
2022/01/10 09:53:38;;;;;;;2.57;2.10;;;3.10;99.90;;;;;;5102926;27;20281;-53
2022/01/10 09:56:26;;;;;;;5.67;2.43;;;3.30;99.90;;;;;;5098627;27;20242;-70
2022/01/10 09:59:10;;;;;;;2.37;2.17;;;3.50;99.90;;;;;;5100597;27;20250;-59
2022/01/10 10:01:55;;;;;;;7.13;3.13;;;3.60;99.90;;;;;;5132156;27;20211;-62
2022/01/10 10:04:40;;;;;;;2.90;2.20;;;3.70;99.90;;;;;;5099258;27;20214;-69
2022/01/10 10:07:24;;;;;;;2.50;2.20;;;3.50;99.90;;;;;;5104168;27;20215;-61
2022/01/10 10:10:13;;;;;;;2.63;2.20;;;3.10;99.90;;;;;;5103198;27;20230;-61
2022/01/10 10:12:59;;;;;;;3.10;2.60;;;3.30;99.90;;;;;;5092151;27;20200;-66
2022/01/10 10:15:46;;;;;;;3.10;2.63;;;3.30;99.90;;;;;;5097153;27;20183;-53
2022/01/10 10:18:31;;;;;;;8.00;2.40;;;3.40;99.90;;;;;;5093022;28;20223;-68
2022/01/10 10:21:19;;;;;;;4.90;2.73;;;3.50;99.90;;;;;;5089781;28;20192;-71
2022/01/10 10:24:04;;;;;;;2.20;2.10;;;3.30;99.90;;;;;;5095415;28;20192;-53
2022/01/10 10:26:49;;;;;;;4.03;2.70;;;3.30;99.90;;;;;;5092473;28;20203;-69
2022/01/10 10:29:38;;;;;;;2.73;2.50;;;3.30;99.90;;;;;;5092296;28;20243;-66
2022/01/10 10:32:29;;;;;;;2.00;1.80;;;3.10;99.90;;;;;;5082518;28;20194;-64
2022/01/10 10:35:15;;;;;;;2.03;1.87;;;3.10;99.90;;;;;;5092211;28;20232;-56
2022/01/10 10:38:02;;;;;;;4.53;3.53;;;3.30;99.90;;;;;;5083969;28;20258;-47
2022/01/10 10:40:48;;;;;;;2.63;2.17;;;3.20;99.90;;;;;;5082121;28;20265;-53
2022/01/10 10:43:36;;;;;;;2.63;2.43;;;3.30;99.90;;;;;;5088357;28;20193;-53
2022/01/10 10:46:26;;;;;;;6.43;2.97;;;3.50;99.90;;;;;;5092326;28;20196;-50
2022/01/10 10:49:11;;;;;;;3.40;2.83;;;3.50;99.90;;;;;;5090536;28;20214;-50
2022/01/10 10:51:56;;;;;;;3.40;2.20;;;3.50;99.90;;;;;;5080404;28;20215;-63
2022/01/10 10:54:41;;;;;;;3.43;2.80;;;3.50;99.90;;;;;;5088308;28;20317;-65
2022/01/10 10:57:27;;;;;;;3.87;2.73;;;3.50;99.90;;;;;;5102071;28;20353;-57
2022/01/10 11:00:15;;;;;;;9.03;2.70;;;3.50;99.90;;;;;;5131445;27;20222;-61
2022/01/10 11:02:59;;;;;;;4.90;3.50;;;3.40;99.90;;;;;;5103454;28;20204;-55
2022/01/10 11:05:45;;;;;;;6.20;3.03;;;3.40;99.90;;;;;;5132062;27;20272;-56
2022/01/10 11:08:31;;;;;;;13.87;3.83;;;3.20;99.90;;;;;;5102455;28;20254;-63
2022/01/10 11:11:23;;;;;;;4.67;2.13;;;3.30;99.90;;;;;;5103465;28;20276;-57
2022/01/10 11:14:10;;;;;;;8.53;2.33;;;3.10;99.90;;;;;;5101537;28;20200;-63
2022/01/10 11:16:55;;;;;;;3.83;2.53;;;3.20;99.90;;;;;;5103022;28;20657;-51
2022/01/10 11:19:39;;;;;;;3.43;2.50;;;3.20;99.90;;;;;;5103366;28;20196;-61
2022/01/10 11:22:24;;;;;;;3.93;3.23;;;3.20;99.90;;;;;;5101679;28;20196;-52
2022/01/10 11:25:20;;;;;;;2.17;2.00;;;3.40;99.90;;;;;;5102238;28;20231;-57
2022/01/10 11:28:07;;;;;;;3.00;2.60;;;3.50;99.90;;;;;;5103786;28;20277;-53
2022/01/10 11:31:02;;;;;;;10.00;3.23;;;3.70;99.90;;;;;;5112442;28;20248;-62
2022/01/10 11:33:47;;;;;;;5.80;2.57;;;3.80;99.90;;;;;;5123461;28;20253;-53
2022/01/10 11:36:32;;;;;;;4.53;2.17;;;4.00;99.90;;;;;;5083450;28;20189;-51
2022/01/10 11:39:16;;;;;;;3.67;1.90;;;4.10;99.90;;;;;;5081027;28;20244;-61
2022/01/10 11:42:18;;;;;;;3.17;2.77;;;4.10;99.90;;;;;;5082746;28;20201;-48
2022/01/10 11:45:20;;;;;;;1.70;1.60;;;4.00;99.90;;;;;;5092381;28;20207;-54
2022/01/10 11:48:11;;;;;;;2.67;1.97;;;4.10;99.90;;;;;;5101096;28;20257;-50
2022/01/10 11:50:55;;;;;;;4.07;3.17;;;4.10;99.90;;;;;;5105087;28;20245;-61
2022/01/10 11:53:51;;;;;;;16.80;7.23;;;4.30;99.90;;;;;;5106831;28;20297;-59
2022/01/10 11:56:43;;;;;;;5.53;2.80;;;4.30;99.90;;;;;;5084291;28;20270;-48
2022/01/10 11:59:42;;;;;;;2.67;1.87;;;4.00;99.90;;;;;;5086293;28;20197;-64
2022/01/10 12:02:29;;;;;;;2.33;1.87;;;3.90;99.90;;;;;;5086596;28;20288;-55
2022/01/10 12:05:13;;;;;;;6.27;3.07;;;3.80;99.90;;;;;;5097172;28;20195;-63
2022/01/10 12:07:58;;;;;;;6.17;1.47;;;3.70;99.90;;;;;;5106527;28;20265;-50
2022/01/10 12:10:43;;;;;;;2.53;2.33;;;3.80;99.90;;;;;;5105958;28;20191;-68
2022/01/10 12:13:30;;;;;;;5.37;2.20;;;3.60;99.90;;;;;;5104768;28;20192;-57
2022/01/10 12:16:15;;;;;;;3.30;2.67;;;3.70;99.90;;;;;;5106097;28;20257;-55
2022/01/10 12:18:59;;;;;;;3.37;1.77;;;3.70;99.90;;;;;;5134230;27;20253;-52
2022/01/10 12:21:45;;;;;;;4.80;2.33;;;3.90;99.90;;;;;;5134426;27;20226;-53
2022/01/10 12:24:31;;;;;;;2.03;1.93;;;4.00;99.90;;;;;;5134979;27;20191;-63
2022/01/10 12:27:18;;;;;;;4.40;2.20;;;3.80;99.90;;;;;;5104267;28;20191;-49
2022/01/10 12:30:04;;;;;;;2.70;2.50;;;3.80;99.90;;;;;;5105918;28;20188;-56
2022/01/10 12:32:49;;;;;;;2.03;1.93;;;3.80;99.90;;;;;;5106434;28;20196;-56
2022/01/10 12:35:33;;;;;;;2.80;2.60;;;4.20;99.90;;;;;;5103524;28;20228;-61
2022/01/10 12:38:24;;;;;;;2.30;2.20;;;4.50;99.90;;;;;;5104613;28;20315;-52
2022/01/10 12:41:09;;;;;;;1.87;1.77;;;4.40;99.90;;;;;;5112242;27;20211;-55
2022/01/10 12:43:56;;;;;;;1.07;1.07;;;4.40;99.90;;;;;;5111491;27;20211;-49
2022/01/10 12:46:41;;;;;;;2.40;1.30;;;4.00;99.90;;;;;;5113687;27;20196;-59
2022/01/10 12:49:25;;;;;;;7.70;1.47;;;4.00;99.90;;;;;;5113803;27;20306;-68
2022/01/10 12:52:10;;;;;;;1.40;1.30;;;4.10;99.90;;;;;;5114173;27;20227;-48
2022/01/10 12:54:55;;;;;;;2.47;1.47;;;4.10;99.90;;;;;;5110767;27;20184;-52
2022/01/10 12:57:39;;;;;;;1.57;1.47;;;4.20;99.90;;;;;;5111956;27;20214;-55
2022/01/10 13:00:23;;;;;;;2.33;1.97;;;4.20;99.90;;;;;;5113486;27;20199;-61
2022/01/10 13:03:09;;;;;;;2.53;1.70;;;4.20;99.90;;;;;;5112307;27;20195;-51
2022/01/10 13:05:56;;;;;;;2.17;1.30;;;4.30;99.90;;;;;;5108355;27;20616;-55
2022/01/10 13:08:41;;;;;;;0.90;0.90;;;4.40;99.90;;;;;;5112729;27;20196;-64
2022/01/10 13:11:33;;;;;;;1.67;1.57;;;4.50;99.90;;;;;;5108719;27;20223;-62
2022/01/10 13:14:20;;;;;;;1.13;1.13;;;4.40;99.90;;;;;;5108714;27;20199;-50
2022/01/10 13:17:07;;;;;;;2.30;1.90;;;4.50;99.90;;;;;;5113531;27;20243;-58
2022/01/10 13:20:00;;;;;;;2.17;1.97;;;4.60;99.90;;;;;;5111778;27;20234;-65
2022/01/10 13:22:45;;;;;;;1.93;1.83;;;4.60;99.90;;;;;;5106919;27;20249;-65
2022/01/10 13:25:39;;;;;;;0.93;0.90;;;4.60;99.90;;;;;;5108504;27;20200;-60
2022/01/10 13:28:24;;;;;;;1.73;1.63;;;4.40;99.90;;;;;;5113315;27;20191;-67
2022/01/10 13:31:08;;;;;;;1.20;1.00;;;4.30;99.90;;;;;;5114668;27;20252;-51
2022/01/10 13:33:55;;;;;;;1.20;1.10;;;4.10;99.90;;;;;;5106818;27;20227;-66
2022/01/10 13:36:43;;;;;;;1.30;1.20;;;4.00;99.90;;;;;;5125513;27;20191;-67
2022/01/10 13:39:29;;;;;;;1.60;1.50;;;4.10;99.90;;;;;;5114822;27;20245;-67
2022/01/10 13:42:14;;;;;;;0.70;0.70;;;4.10;99.90;;;;;;5109935;27;20181;-60
2022/01/10 13:45:01;;;;;;;1.23;1.20;;;4.00;99.90;;;;;;5110372;27;20200;-58
2022/01/10 13:47:49;;;;;;;0.90;0.90;;;3.90;99.90;;;;;;5116831;27;20245;-59
2022/01/10 13:50:34;;;;;;;1.47;1.40;;;4.10;99.90;;;;;;5127448;27;20236;-64
2022/01/10 13:53:22;;;;;;;3.63;1.20;;;4.10;99.90;;;;;;5099741;27;20200;-55
2022/01/10 13:56:10;;;;;;;1.23;1.00;;;4.10;99.90;;;;;;5114903;27;20187;-67
2022/01/10 13:59:02;;;;;;;1.13;0.97;;;4.20;99.90;;;;;;5106312;27;20214;-68
2022/01/10 14:01:54;;;;;;;1.07;1.00;;;4.40;99.90;;;;;;5110453;27;20200;-63
2022/01/10 14:04:39;;;;;;;0.77;0.77;;;4.40;99.90;;;;;;5113918;27;20187;-68
2022/01/10 14:07:33;;;;;;;0.63;0.57;;;4.50;99.90;;;;;;5118693;27;20203;-68
2022/01/10 14:10:18;;;;;;;1.33;0.90;;;4.30;99.90;;;;;;5122849;27;20249;-60
2022/01/10 14:13:02;;;;;;;2.40;1.57;;;4.20;99.90;;;;;;5108252;27;20199;-62
2022/01/10 14:15:47;;;;;;;1.33;1.23;;;4.10;99.90;;;;;;5102424;28;20296;-68
2022/01/10 14:18:31;;;;;;;1.83;1.13;;;4.20;99.90;;;;;;5102304;28;20227;-61
2022/01/10 14:21:17;;;;;;;2.07;1.20;;;4.10;99.90;;;;;;5103315;28;20199;-63
2022/01/10 14:24:02;;;;;;;3.10;1.33;;;4.20;99.90;;;;;;5095317;28;20233;-65
2022/01/10 14:26:47;;;;;;;1.33;1.10;;;4.20;99.90;;;;;;5096871;28;20201;-66
2022/01/10 14:29:31;;;;;;;1.00;1.00;;;4.30;99.90;;;;;;5098298;28;20188;-66
2022/01/10 14:32:16;;;;;;;1.00;1.00;;;4.30;99.90;;;;;;5110598;27;20234;-59
2022/01/10 14:35:01;;;;;;;1.83;1.50;;;4.30;99.90;;;;;;5110405;27;20311;-64
2022/01/10 14:37:46;;;;;;;1.23;0.93;;;4.30;99.90;;;;;;5109367;27;20247;-63